Time;durP1;ratioP1;P1;durP2;ratioP2;P2;SDS_P1;SDS_P2;PMS_P1;PMS_P2;Temp;Humidity;BMP_temperature;BMP_pressure;BME280_temperature;BME280_humidity;BME280_pressure;Samples;Min_cycle;Max_cycle;Signal;HPM_P1;HPM_P2
2023/07/09 00:01:54;;;;;;;8.15;6.78;;;21.50;99.90;;;;;;5121833;27;20038;-66
2023/07/09 00:04:21;;;;;;;10.55;7.72;;;21.40;99.90;;;;;;5131550;27;20557;-67
2023/07/09 00:06:46;;;;;;;8.38;6.95;;;21.40;99.90;;;;;;5141137;27;20039;-68
2023/07/09 00:09:15;;;;;;;10.25;7.18;;;21.30;99.90;;;;;;5132003;27;20049;-66
2023/07/09 00:11:42;;;;;;;8.90;7.45;;;21.20;99.90;;;;;;5122945;27;20039;-67
2023/07/09 00:14:13;;;;;;;8.48;6.97;;;21.20;99.90;;;;;;5116242;27;20038;-66
2023/07/09 00:16:40;;;;;;;10.30;6.90;;;21.10;99.90;;;;;;5116353;27;20403;-66
2023/07/09 00:19:13;;;;;;;9.38;7.00;;;21.10;99.90;;;;;;5114837;27;20051;-66
2023/07/09 00:21:40;;;;;;;9.70;7.10;;;21.10;99.90;;;;;;5117721;27;20047;-66
2023/07/09 00:24:07;;;;;;;7.97;7.18;;;21.10;99.90;;;;;;5121731;27;20078;-67
2023/07/09 00:26:33;;;;;;;9.57;7.57;;;21.10;99.90;;;;;;5120528;27;20043;-67
2023/07/09 00:29:01;;;;;;;10.43;7.30;;;21.00;99.90;;;;;;5118567;27;20817;-67
2023/07/09 00:31:27;;;;;;;11.30;7.82;;;21.00;99.90;;;;;;5118334;27;20039;-66
2023/07/09 00:33:55;;;;;;;8.77;6.90;;;21.00;99.90;;;;;;5128046;27;20132;-67
2023/07/09 00:36:31;;;;;;;8.57;6.47;;;20.90;99.90;;;;;;5138059;27;20054;-67
2023/07/09 00:38:59;;;;;;;9.18;6.82;;;20.90;99.90;;;;;;5113450;27;20110;-66
2023/07/09 00:41:25;;;;;;;10.75;7.05;;;20.80;99.90;;;;;;5122717;27;20046;-67
2023/07/09 00:43:52;;;;;;;10.77;7.00;;;20.80;99.90;;;;;;5121160;27;20031;-66
2023/07/09 00:46:24;;;;;;;8.27;7.22;;;20.80;99.90;;;;;;5110867;27;20094;-66
2023/07/09 00:48:57;;;;;;;8.18;7.15;;;20.80;99.90;;;;;;5129455;27;20438;-66
2023/07/09 00:51:25;;;;;;;10.00;7.18;;;20.70;99.90;;;;;;5124166;27;20072;-67
2023/07/09 00:53:55;;;;;;;8.75;7.25;;;20.70;99.90;;;;;;5120318;27;20047;-67
2023/07/09 00:56:42;;;;;;;10.00;7.78;;;20.60;99.90;;;;;;5126190;27;20035;-66
2023/07/09 00:59:12;;;;;;;10.57;8.02;;;20.60;99.90;;;;;;5127217;27;20057;-66
2023/07/09 01:01:40;;;;;;;9.02;7.68;;;20.50;99.90;;;;;;5129901;27;20083;-66
2023/07/09 01:04:07;;;;;;;9.98;7.72;;;20.50;99.90;;;;;;5123961;27;20405;-67
2023/07/09 01:06:41;;;;;;;9.00;7.38;;;20.40;99.90;;;;;;5128173;27;20074;-67
2023/07/09 01:09:07;;;;;;;9.77;7.18;;;20.30;99.90;;;;;;5125944;27;20040;-66
2023/07/09 01:11:34;;;;;;;9.10;7.57;;;20.20;99.90;;;;;;5123771;27;20174;-67
2023/07/09 01:14:02;;;;;;;10.15;7.57;;;20.20;99.90;;;;;;5127885;27;20067;-67
2023/07/09 01:16:31;;;;;;;7.93;7.13;;;20.10;99.90;;;;;;5096228;27;20058;-66
2023/07/09 01:18:58;;;;;;;10.02;7.93;;;20.00;99.90;;;;;;5113970;27;20175;-67
2023/07/09 01:21:23;;;;;;;8.45;6.70;;;20.00;99.90;;;;;;5129678;27;20191;-66
2023/07/09 01:23:51;;;;;;;8.98;7.43;;;19.90;99.90;;;;;;5138484;27;20114;-67
2023/07/09 01:26:20;;;;;;;10.23;7.03;;;19.90;99.90;;;;;;5141750;27;20469;-66
2023/07/09 01:28:47;;;;;;;8.07;6.90;;;19.90;99.90;;;;;;5121486;27;20062;-66
2023/07/09 01:31:14;;;;;;;7.88;6.65;;;19.80;99.90;;;;;;5126173;27;20496;-66
2023/07/09 01:33:44;;;;;;;9.13;6.95;;;19.80;99.90;;;;;;5120145;27;20054;-66
2023/07/09 01:36:13;;;;;;;9.68;7.30;;;19.80;99.90;;;;;;5119711;27;20363;-67
2023/07/09 01:38:40;;;;;;;9.10;7.50;;;19.80;99.90;;;;;;5118366;27;20039;-66
2023/07/09 01:41:06;;;;;;;10.30;6.95;;;19.80;99.90;;;;;;5126551;27;20046;-66
2023/07/09 01:43:32;;;;;;;10.13;8.35;;;19.70;99.90;;;;;;5117470;27;20126;-67
2023/07/09 01:45:58;;;;;;;11.10;8.43;;;19.70;99.90;;;;;;5116142;27;20047;-66
2023/07/09 01:48:25;;;;;;;11.02;8.40;;;19.60;99.90;;;;;;5122890;27;20302;-67
2023/07/09 01:50:53;;;;;;;10.50;7.97;;;19.60;99.90;;;;;;5122978;27;20492;-67
2023/07/09 01:53:23;;;;;;;10.68;8.07;;;19.50;99.90;;;;;;5118427;27;20122;-66
2023/07/09 01:55:50;;;;;;;11.40;8.27;;;19.50;99.90;;;;;;5116822;27;20485;-66
2023/07/09 01:58:16;;;;;;;9.13;7.80;;;19.40;99.90;;;;;;5148959;27;20030;-66
2023/07/09 02:00:42;;;;;;;9.15;7.78;;;19.40;99.90;;;;;;5118711;27;20041;-66
2023/07/09 02:03:08;;;;;;;10.93;8.13;;;19.40;99.90;;;;;;5117196;27;20464;-67
2023/07/09 02:05:36;;;;;;;8.60;7.60;;;19.30;99.90;;;;;;5118775;27;20055;-67
2023/07/09 02:08:02;;;;;;;9.57;7.68;;;19.30;99.90;;;;;;5118217;27;20043;-67
2023/07/09 02:10:27;;;;;;;11.70;8.13;;;19.20;99.90;;;;;;5124677;27;20053;-66
2023/07/09 02:12:53;;;;;;;8.93;7.85;;;19.20;99.90;;;;;;5123727;27;20039;-66
2023/07/09 02:15:19;;;;;;;10.00;7.85;;;19.20;99.90;;;;;;5117552;27;21002;-67
2023/07/09 02:17:45;;;;;;;10.63;8.40;;;19.20;99.90;;;;;;5123312;27;20045;-66
2023/07/09 02:20:13;;;;;;;13.20;8.02;;;19.20;99.90;;;;;;5125870;27;20035;-66
2023/07/09 02:22:40;;;;;;;11.20;7.80;;;19.10;99.90;;;;;;5118356;27;20071;-67
2023/07/09 02:25:07;;;;;;;9.85;7.90;;;19.10;99.90;;;;;;5131527;27;20041;-67
2023/07/09 02:27:33;;;;;;;8.52;6.97;;;19.10;99.90;;;;;;5124615;27;20145;-67
2023/07/09 02:30:00;;;;;;;8.48;7.60;;;19.10;99.90;;;;;;5122544;27;20035;-67
2023/07/09 02:32:27;;;;;;;9.95;7.80;;;19.10;99.90;;;;;;5134274;27;20118;-66
2023/07/09 02:34:54;;;;;;;10.10;7.93;;;19.10;99.90;;;;;;5137023;27;20043;-66
2023/07/09 02:37:25;;;;;;;9.45;8.10;;;19.10;99.90;;;;;;5126964;27;20083;-66
2023/07/09 02:39:51;;;;;;;10.30;7.65;;;19.00;99.90;;;;;;5126090;27;20035;-66
2023/07/09 02:42:19;;;;;;;9.25;7.45;;;19.00;99.90;;;;;;5109914;27;20038;-66
2023/07/09 02:44:45;;;;;;;9.82;7.68;;;18.90;99.90;;;;;;5137268;27;20058;-65
2023/07/09 02:47:12;;;;;;;9.00;7.72;;;18.90;99.90;;;;;;5126023;27;20130;-63
2023/07/09 02:49:38;;;;;;;9.30;8.00;;;18.90;99.90;;;;;;5121547;27;20093;-66
2023/07/09 02:52:04;;;;;;;8.07;7.25;;;18.90;99.90;;;;;;5120478;27;20031;-66
2023/07/09 02:54:30;;;;;;;10.38;7.63;;;18.80;99.90;;;;;;5129984;27;20042;-64
2023/07/09 02:56:56;;;;;;;10.82;7.78;;;18.80;99.90;;;;;;5134099;27;20087;-65
2023/07/09 02:59:22;;;;;;;10.35;7.38;;;18.70;99.90;;;;;;5124424;27;20118;-65
2023/07/09 03:01:49;;;;;;;9.27;7.32;;;18.70;99.90;;;;;;5131998;27;20084;-64
2023/07/09 03:04:16;;;;;;;9.93;7.30;;;18.70;99.90;;;;;;5132478;27;20511;-64
2023/07/09 03:06:41;;;;;;;8.77;7.10;;;18.70;99.90;;;;;;5123321;27;20030;-65
2023/07/09 03:09:09;;;;;;;10.05;7.35;;;18.70;99.90;;;;;;5120738;27;20083;-64
2023/07/09 03:11:35;;;;;;;8.70;7.55;;;18.80;99.90;;;;;;5118354;27;20086;-65
2023/07/09 03:14:01;;;;;;;8.30;7.00;;;18.80;99.90;;;;;;5139165;27;20038;-64
2023/07/09 03:16:28;;;;;;;8.20;7.25;;;18.80;99.90;;;;;;5127329;27;20070;-64
2023/07/09 03:18:54;;;;;;;12.13;7.70;;;18.80;99.90;;;;;;5142127;27;20496;-64
2023/07/09 03:21:25;;;;;;;9.77;7.65;;;18.80;99.90;;;;;;5122702;27;20070;-65
2023/07/09 03:23:51;;;;;;;11.32;7.47;;;18.90;99.90;;;;;;5131697;27;20535;-64
2023/07/09 03:26:17;;;;;;;10.05;7.50;;;18.90;99.90;;;;;;5130267;27;20027;-65
2023/07/09 03:28:42;;;;;;;8.52;7.45;;;19.00;99.90;;;;;;5130300;27;20042;-64
2023/07/09 03:31:08;;;;;;;9.60;7.00;;;19.10;99.90;;;;;;5123195;27;20027;-65
2023/07/09 03:33:34;;;;;;;11.10;8.57;;;19.10;99.90;;;;;;5124089;27;20054;-65
2023/07/09 03:36:00;;;;;;;12.25;8.10;;;19.20;99.90;;;;;;5119263;27;20035;-64
2023/07/09 03:38:25;;;;;;;11.68;7.90;;;19.30;99.90;;;;;;5152219;27;20034;-64
2023/07/09 03:40:52;;;;;;;9.38;7.75;;;19.30;99.90;;;;;;5143388;27;20043;-65
2023/07/09 03:43:19;;;;;;;10.38;8.10;;;19.40;99.90;;;;;;5120646;27;20043;-63
2023/07/09 03:45:46;;;;;;;12.68;8.20;;;19.40;99.90;;;;;;5127393;27;20133;-65
2023/07/09 03:48:12;;;;;;;9.98;8.15;;;19.50;99.90;;;;;;5135275;27;20099;-64
2023/07/09 03:50:38;;;;;;;9.27;7.75;;;19.50;99.90;;;;;;5140730;27;20047;-64
2023/07/09 03:53:05;;;;;;;10.23;8.15;;;19.60;99.90;;;;;;5116611;27;20149;-65
2023/07/09 03:55:31;;;;;;;10.82;7.90;;;19.60;99.90;;;;;;5139103;27;20486;-67
2023/07/09 03:57:57;;;;;;;14.48;9.63;;;19.60;99.90;;;;;;5131374;27;20026;-67
2023/07/09 04:00:24;;;;;;;9.77;7.50;;;19.70;99.90;;;;;;5120413;27;20523;-66
2023/07/09 04:02:50;;;;;;;12.45;8.25;;;19.80;99.90;;;;;;5124695;27;20042;-66
2023/07/09 04:05:17;;;;;;;12.30;8.00;;;19.90;99.90;;;;;;5126917;27;20089;-65
2023/07/09 04:07:44;;;;;;;12.00;8.02;;;19.90;99.90;;;;;;5119233;27;20042;-65
2023/07/09 04:10:10;;;;;;;9.45;7.82;;;19.90;99.90;;;;;;5123141;27;20453;-65
2023/07/09 04:12:36;;;;;;;8.73;7.78;;;20.00;99.90;;;;;;5125028;27;20058;-67
2023/07/09 04:15:03;;;;;;;9.10;7.93;;;20.00;99.90;;;;;;5126340;27;20070;-65
2023/07/09 04:17:29;;;;;;;13.93;8.52;;;20.00;99.90;;;;;;5119680;27;20534;-65
2023/07/09 04:19:54;;;;;;;11.43;8.07;;;20.10;99.90;;;;;;5150352;27;20070;-66
2023/07/09 04:22:21;;;;;;;10.25;8.45;;;20.10;99.90;;;;;;5129104;27;20514;-66
2023/07/09 04:24:46;;;;;;;8.57;7.25;;;20.10;99.90;;;;;;5129841;27;20043;-65
2023/07/09 04:27:13;;;;;;;10.07;7.93;;;20.20;99.90;;;;;;5128207;27;20091;-66
2023/07/09 04:29:40;;;;;;;11.20;8.05;;;20.20;99.90;;;;;;5122152;27;20074;-66
2023/07/09 04:32:07;;;;;;;11.57;8.20;;;20.20;99.90;;;;;;5106634;27;20050;-67
2023/07/09 04:34:32;;;;;;;11.68;8.10;;;20.30;99.90;;;;;;5120537;27;20043;-66
2023/07/09 04:36:58;;;;;;;10.90;8.80;;;20.30;99.90;;;;;;5149367;27;20042;-65
2023/07/09 04:39:24;;;;;;;11.88;8.25;;;20.40;99.90;;;;;;5128044;27;20384;-66
2023/07/09 04:41:50;;;;;;;11.90;7.97;;;20.40;99.90;;;;;;5133046;27;20367;-65
2023/07/09 04:44:16;;;;;;;11.18;7.60;;;20.50;99.90;;;;;;5102573;27;20130;-66
2023/07/09 04:46:41;;;;;;;12.05;8.55;;;20.50;99.90;;;;;;5103853;27;20031;-65
2023/07/09 04:49:07;;;;;;;10.68;8.55;;;20.60;99.90;;;;;;5122769;27;20031;-64
2023/07/09 04:51:33;;;;;;;12.27;8.43;;;20.70;99.90;;;;;;5129093;27;20035;-65
2023/07/09 04:54:02;;;;;;;9.77;8.18;;;20.70;99.90;;;;;;5125327;27;20063;-64
2023/07/09 04:56:29;;;;;;;11.90;8.55;;;20.80;99.90;;;;;;5132697;27;20047;-64
2023/07/09 04:58:55;;;;;;;13.52;8.43;;;20.90;99.90;;;;;;5122047;27;20050;-64
2023/07/09 05:01:21;;;;;;;11.85;8.02;;;20.90;99.90;;;;;;5130537;27;20031;-64
2023/07/09 05:03:47;;;;;;;12.07;8.98;;;21.00;99.90;;;;;;5108190;27;20047;-65
2023/07/09 05:06:13;;;;;;;13.05;9.40;;;21.00;99.90;;;;;;5123123;27;20038;-65
2023/07/09 05:08:38;;;;;;;11.65;8.68;;;21.10;99.90;;;;;;5127792;27;20038;-63
2023/07/09 05:11:04;;;;;;;10.90;8.43;;;21.20;99.90;;;;;;5151083;27;20049;-63
2023/07/09 05:13:29;;;;;;;11.88;8.90;;;21.20;99.90;;;;;;5119229;27;20407;-64
2023/07/09 05:15:55;;;;;;;13.52;9.07;;;21.20;99.90;;;;;;5117316;27;20078;-65
2023/07/09 05:18:21;;;;;;;13.30;9.27;;;21.20;99.90;;;;;;5120812;27;20117;-64
2023/07/09 05:20:47;;;;;;;11.93;8.98;;;21.30;99.90;;;;;;5122047;27;20095;-65
2023/07/09 05:23:13;;;;;;;13.05;9.07;;;21.30;99.90;;;;;;5125811;27;20045;-65
2023/07/09 05:25:38;;;;;;;11.90;9.50;;;21.30;99.90;;;;;;5119069;27;20463;-64
2023/07/09 05:28:05;;;;;;;11.75;8.95;;;21.30;99.90;;;;;;5124952;27;20451;-63
2023/07/09 05:30:31;;;;;;;15.32;9.85;;;21.30;99.90;;;;;;5123471;27;20493;-64
2023/07/09 05:32:57;;;;;;;11.73;9.30;;;21.30;99.90;;;;;;5118601;27;20127;-66
2023/07/09 05:35:27;;;;;;;13.30;9.25;;;21.30;99.90;;;;;;5140842;27;20035;-64
2023/07/09 05:37:53;;;;;;;14.88;9.93;;;21.30;99.90;;;;;;5124008;27;20038;-64
2023/07/09 05:40:19;;;;;;;11.63;9.00;;;21.40;99.90;;;;;;5118092;27;20046;-65
2023/07/09 05:42:44;;;;;;;14.20;9.02;;;21.30;99.90;;;;;;5117860;27;20497;-65
2023/07/09 05:45:11;;;;;;;11.50;9.40;;;21.40;99.90;;;;;;5119279;27;20058;-63
2023/07/09 05:47:36;;;;;;;11.40;9.55;;;21.40;99.90;;;;;;5118743;27;20031;-64
2023/07/09 05:50:03;;;;;;;10.85;9.18;;;21.50;99.90;;;;;;5118686;27;20435;-64
2023/07/09 05:52:29;;;;;;;12.70;9.30;;;21.50;99.90;;;;;;5123207;27;20411;-65
2023/07/09 05:54:55;;;;;;;11.07;9.30;;;21.60;99.90;;;;;;5126426;27;20035;-67
2023/07/09 05:57:21;;;;;;;12.90;9.45;;;21.70;99.90;;;;;;5118674;27;20043;-66
2023/07/09 05:59:47;;;;;;;12.85;9.27;;;21.80;99.90;;;;;;5140230;27;20382;-66
2023/07/09 06:02:14;;;;;;;11.50;9.43;;;21.80;99.90;;;;;;5125888;27;20127;-65
2023/07/09 06:04:41;;;;;;;14.82;9.93;;;21.90;99.90;;;;;;5130534;27;20497;-64
2023/07/09 06:07:08;;;;;;;13.05;9.45;;;22.00;99.90;;;;;;5122505;27;20119;-63
2023/07/09 06:09:35;;;;;;;13.32;9.98;;;22.00;99.90;;;;;;5100737;27;20150;-66
2023/07/09 06:12:05;;;;;;;12.90;10.32;;;22.20;99.90;;;;;;5124941;27;20405;-65
2023/07/09 06:14:31;;;;;;;12.45;9.90;;;22.20;99.90;;;;;;5130734;27;20047;-67
2023/07/09 06:16:57;;;;;;;11.65;9.20;;;22.40;99.90;;;;;;5121536;27;20430;-66
2023/07/09 06:19:23;;;;;;;12.40;9.23;;;22.50;99.90;;;;;;5114813;28;20046;-66
2023/07/09 06:21:49;;;;;;;10.07;9.00;;;22.70;99.90;;;;;;5117612;27;20035;-65
2023/07/09 06:24:14;;;;;;;12.60;9.70;;;22.90;99.90;;;;;;5127770;27;20370;-64
2023/07/09 06:26:40;;;;;;;14.07;9.85;;;23.00;99.90;;;;;;5128123;27;20385;-64
2023/07/09 06:29:06;;;;;;;11.10;9.13;;;23.10;99.90;;;;;;5123265;27;20035;-63
2023/07/09 06:31:31;;;;;;;13.80;9.55;;;23.30;99.90;;;;;;5119038;27;20039;-64
2023/07/09 06:33:57;;;;;;;11.20;8.98;;;23.40;99.90;;;;;;5143551;27;20045;-67
2023/07/09 06:36:23;;;;;;;12.50;10.00;;;23.50;99.90;;;;;;5117824;27;20156;-64
2023/07/09 06:38:48;;;;;;;12.23;9.65;;;23.60;99.90;;;;;;5129551;27;20123;-64
2023/07/09 06:41:15;;;;;;;12.15;9.65;;;23.60;99.90;;;;;;5120866;27;20043;-65
2023/07/09 06:43:41;;;;;;;13.30;9.77;;;23.80;99.90;;;;;;5125968;27;20046;-64
2023/07/09 06:46:10;;;;;;;11.50;9.77;;;24.00;99.90;;;;;;5113207;27;21279;-65
2023/07/09 06:48:36;;;;;;;15.55;10.70;;;24.10;99.90;;;;;;5142360;27;20082;-64
2023/07/09 06:51:01;;;;;;;13.02;10.10;;;24.20;99.90;;;;;;5124696;27;20070;-65
2023/07/09 06:53:28;;;;;;;13.35;9.65;;;24.40;99.90;;;;;;5122831;27;20038;-65
2023/07/09 06:55:58;;;;;;;14.55;10.20;;;24.60;99.90;;;;;;5138934;27;20477;-64
2023/07/09 06:58:25;;;;;;;13.55;9.18;;;24.60;99.90;;;;;;5139942;27;20105;-65
2023/07/09 07:00:52;;;;;;;12.45;9.18;;;24.70;99.90;;;;;;5128991;27;20049;-64
2023/07/09 07:03:17;;;;;;;14.57;9.35;;;24.80;99.90;;;;;;5127543;27;20056;-65
2023/07/09 07:05:44;;;;;;;13.40;9.50;;;24.90;99.90;;;;;;5128880;27;20031;-65
2023/07/09 07:08:13;;;;;;;11.50;10.00;;;25.00;99.90;;;;;;5143965;27;20027;-64
2023/07/09 07:10:39;;;;;;;13.27;10.07;;;25.20;99.90;;;;;;5134668;27;20549;-66
2023/07/09 07:13:04;;;;;;;11.77;9.30;;;25.30;99.90;;;;;;5137415;27;20047;-64
2023/07/09 07:15:30;;;;;;;14.85;10.88;;;25.40;99.90;;;;;;5114440;27;20078;-65
2023/07/09 07:17:55;;;;;;;13.75;10.00;;;25.50;99.90;;;;;;5149313;27;21685;-65
2023/07/09 07:20:21;;;;;;;12.70;10.10;;;25.70;99.90;;;;;;5118953;27;20069;-65
2023/07/09 07:22:47;;;;;;;12.98;9.77;;;25.80;99.90;;;;;;5118072;27;20074;-64
2023/07/09 07:25:13;;;;;;;13.48;9.60;;;25.80;99.90;;;;;;5117927;27;20031;-64
2023/07/09 07:27:39;;;;;;;12.15;9.60;;;26.00;99.90;;;;;;5134962;27;20031;-65
2023/07/09 07:30:08;;;;;;;12.38;9.85;;;26.10;99.90;;;;;;5134929;27;20075;-64
2023/07/09 07:32:36;;;;;;;12.57;9.90;;;26.10;99.90;;;;;;5138075;27;20098;-65
2023/07/09 07:35:01;;;;;;;11.15;9.70;;;26.20;99.90;;;;;;5131889;27;20385;-65
2023/07/09 07:37:27;;;;;;;13.63;10.23;;;26.40;99.90;;;;;;5117093;27;20035;-66
2023/07/09 07:39:52;;;;;;;16.25;10.93;;;26.40;99.90;;;;;;5122776;27;20116;-65
2023/07/09 07:42:19;;;;;;;13.65;10.57;;;26.50;99.90;;;;;;5130087;27;20050;-64
2023/07/09 07:44:45;;;;;;;13.60;10.55;;;26.60;99.90;;;;;;5130436;27;20489;-65
2023/07/09 07:47:11;;;;;;;11.45;9.48;;;26.60;99.90;;;;;;5125358;27;20046;-66
2023/07/09 07:49:38;;;;;;;13.82;9.88;;;26.80;99.90;;;;;;5122728;27;20038;-65
2023/07/09 07:52:04;;;;;;;14.70;9.52;;;26.60;99.90;;;;;;5125956;27;20087;-65
2023/07/09 07:54:31;;;;;;;10.75;8.70;;;26.70;99.90;;;;;;5120790;27;20486;-65
2023/07/09 07:56:58;;;;;;;12.70;9.02;;;26.70;99.90;;;;;;5122341;27;20072;-65
2023/07/09 07:59:24;;;;;;;11.57;9.20;;;26.70;99.80;;;;;;5116870;27;20035;-64
2023/07/09 08:01:50;;;;;;;12.52;8.93;;;26.90;99.90;;;;;;5130847;27;20039;-65
2023/07/09 08:04:15;;;;;;;12.23;8.20;;;27.00;99.90;;;;;;5133301;27;20118;-65
2023/07/09 08:06:41;;;;;;;10.93;7.30;;;27.10;99.50;;;;;;5129445;27;20042;-65
2023/07/09 08:09:07;;;;;;;10.48;7.97;;;27.30;99.40;;;;;;5148123;27;20034;-65
2023/07/09 08:11:33;;;;;;;11.32;7.78;;;27.30;99.20;;;;;;5115838;27;20039;-64
2023/07/09 08:13:59;;;;;;;9.60;7.25;;;27.30;99.20;;;;;;5129092;27;20209;-65
2023/07/09 08:16:24;;;;;;;12.85;7.80;;;27.40;98.80;;;;;;5126343;27;20071;-63
2023/07/09 08:18:51;;;;;;;9.68;8.20;;;27.60;98.90;;;;;;5123809;27;20075;-64
2023/07/09 08:21:18;;;;;;;10.57;6.78;;;27.70;98.90;;;;;;5123803;27;20113;-65
2023/07/09 08:23:44;;;;;;;9.15;7.28;;;27.80;99.90;;;;;;5121871;27;20074;-65
2023/07/09 08:26:10;;;;;;;9.02;7.18;;;28.00;99.20;;;;;;5133752;27;20031;-64
2023/07/09 08:28:36;;;;;;;9.00;7.03;;;28.20;98.70;;;;;;5115806;27;20087;-65
2023/07/09 08:31:02;;;;;;;9.85;7.00;;;28.40;99.30;;;;;;5131471;27;20117;-65
2023/07/09 08:33:27;;;;;;;9.00;6.43;;;28.60;98.80;;;;;;5121204;27;20062;-65
2023/07/09 08:35:54;;;;;;;9.82;6.78;;;28.80;98.20;;;;;;5130691;27;20074;-64
2023/07/09 08:38:21;;;;;;;8.77;6.85;;;28.90;97.20;;;;;;5133134;27;20043;-64
2023/07/09 08:41:02;;;;;;;8.38;6.80;;;29.00;96.90;;;;;;5133053;27;20404;-64
2023/07/09 08:43:52;;;;;;;8.32;6.32;;;29.00;95.50;;;;;;5124170;27;20066;-65
2023/07/09 08:46:32;;;;;;;10.20;5.90;;;29.00;95.20;;;;;;5123957;27;20042;-64
2023/07/09 08:48:59;;;;;;;7.72;6.03;;;29.20;95.70;;;;;;5142085;27;20118;-65
2023/07/09 08:51:36;;;;;;;9.23;6.57;;;29.40;95.80;;;;;;5127019;27;20038;-65
2023/07/09 08:54:02;;;;;;;12.00;6.70;;;29.60;95.50;;;;;;5124664;27;20053;-65
2023/07/09 08:56:32;;;;;;;10.52;6.63;;;29.70;95.10;;;;;;5122923;27;21290;-65
2023/07/09 08:59:01;;;;;;;9.40;6.22;;;29.80;94.20;;;;;;5121765;27;20043;-65
2023/07/09 09:01:35;;;;;;;9.38;6.22;;;29.80;94.60;;;;;;5128956;27;20034;-65
2023/07/09 09:04:13;;;;;;;9.32;6.13;;;29.70;93.90;;;;;;5128104;27;20050;-65
2023/07/09 09:06:44;;;;;;;10.05;5.68;;;29.70;94.00;;;;;;5119862;27;20042;-65
2023/07/09 09:09:12;;;;;;;9.15;5.70;;;29.80;93.70;;;;;;5135160;27;20034;-65
2023/07/09 09:11:45;;;;;;;8.05;5.72;;;29.80;93.30;;;;;;5121694;27;20069;-65
2023/07/09 09:14:34;;;;;;;8.23;6.18;;;29.80;92.80;;;;;;5121891;27;20038;-65
2023/07/09 09:17:01;;;;;;;8.05;6.30;;;29.80;93.20;;;;;;5118680;27;20063;-65
2023/07/09 09:19:36;;;;;;;8.48;6.07;;;29.90;93.90;;;;;;5123068;27;20043;-65
2023/07/09 09:22:11;;;;;;;9.13;5.78;;;30.10;93.60;;;;;;5144402;27;20043;-65
2023/07/09 09:25:15;;;;;;;7.05;5.95;;;30.30;93.30;;;;;;5122430;27;20047;-65
2023/07/09 09:27:41;;;;;;;8.77;6.15;;;30.30;92.50;;;;;;5108839;27;20050;-66
2023/07/09 09:30:25;;;;;;;9.27;5.55;;;30.20;92.90;;;;;;5130763;27;20035;-66
2023/07/09 09:32:58;;;;;;;8.77;6.07;;;30.30;93.40;;;;;;5129584;27;20044;-65
2023/07/09 09:35:33;;;;;;;11.07;6.43;;;30.30;92.80;;;;;;5117053;27;20047;-66
2023/07/09 09:37:59;;;;;;;10.88;5.82;;;30.40;92.30;;;;;;5112553;27;20110;-66
2023/07/09 09:40:28;;;;;;;13.27;6.40;;;30.50;93.00;;;;;;5114762;27;20097;-66
2023/07/09 09:42:56;;;;;;;12.77;6.80;;;30.50;92.90;;;;;;5113495;27;20088;-65
2023/07/09 09:45:28;;;;;;;17.58;6.43;;;30.50;92.60;;;;;;5142139;27;20086;-65
2023/07/09 09:47:59;;;;;;;22.52;6.78;;;30.60;92.00;;;;;;5129122;27;20043;-65
2023/07/09 09:50:27;;;;;;;24.57;6.47;;;30.60;91.40;;;;;;5132411;27;20042;-65
2023/07/09 09:52:52;;;;;;;10.77;5.22;;;30.60;91.20;;;;;;5120542;27;20117;-66
2023/07/09 09:55:24;;;;;;;10.85;5.95;;;30.60;91.20;;;;;;5115563;27;20122;-66
2023/07/09 09:57:51;;;;;;;13.80;5.82;;;30.70;91.30;;;;;;5130535;27;20034;-65
2023/07/09 10:00:22;;;;;;;13.88;6.72;;;30.80;91.70;;;;;;5114587;27;20125;-66
2023/07/09 10:02:48;;;;;;;12.57;6.85;;;30.80;91.60;;;;;;5114049;27;20038;-65
2023/07/09 10:05:16;;;;;;;11.15;6.32;;;30.90;91.80;;;;;;5115129;27;20038;-64
2023/07/09 10:08:07;;;;;;;8.55;6.32;;;31.00;91.70;;;;;;5116534;27;20049;-65
2023/07/09 10:10:33;;;;;;;11.98;6.13;;;30.90;91.90;;;;;;5113757;27;20103;-64
2023/07/09 10:13:17;;;;;;;7.80;6.25;;;31.10;91.40;;;;;;5125718;27;20057;-65
2023/07/09 10:16:02;;;;;;;8.30;6.03;;;31.20;92.50;;;;;;5119638;27;20050;-65
2023/07/09 10:18:27;;;;;;;9.50;6.00;;;31.30;91.20;;;;;;5113044;27;20082;-65
2023/07/09 10:21:09;;;;;;;9.93;6.53;;;31.20;91.20;;;;;;5111560;27;20075;-66
2023/07/09 10:23:59;;;;;;;8.95;5.82;;;31.30;91.80;;;;;;5123313;27;20558;-64
2023/07/09 10:26:36;;;;;;;12.68;6.03;;;31.50;92.10;;;;;;5017043;28;20052;-65
2023/07/09 10:29:52;;;;;;;10.43;5.72;;;31.40;90.30;;;;;;5015481;28;20044;-64
2023/07/09 10:32:44;;;;;;;12.07;5.65;;;31.60;90.90;;;;;;4968992;28;20042;-66
2023/07/09 10:35:48;;;;;;;8.90;5.65;;;31.70;91.90;;;;;;4966903;28;20057;-65
2023/07/09 10:38:45;;;;;;;6.70;5.50;;;31.90;91.90;;;;;;4911802;29;20123;-64
2023/07/09 10:41:13;;;;;;;9.75;5.95;;;32.00;91.90;;;;;;4908694;29;20052;-65
2023/07/09 10:43:48;;;;;;;9.88;6.82;;;32.10;91.20;;;;;;4915434;29;20055;-66
2023/07/09 10:46:24;;;;;;;10.05;5.57;;;32.20;90.50;;;;;;4914610;29;20110;-66
2023/07/09 10:48:52;;;;;;;10.88;6.47;;;32.30;90.10;;;;;;4934006;29;20044;-66
2023/07/09 10:51:32;;;;;;;7.40;5.63;;;32.50;90.50;;;;;;4929434;29;20590;-66
2023/07/09 10:54:04;;;;;;;7.20;5.90;;;32.50;90.40;;;;;;4914286;29;20415;-64
2023/07/09 10:56:35;;;;;;;13.32;5.65;;;32.60;90.60;;;;;;4916407;29;20062;-65
2023/07/09 10:59:14;;;;;;;8.70;5.90;;;32.70;90.20;;;;;;4916256;29;20064;-65
2023/07/09 11:01:43;;;;;;;9.00;5.70;;;32.80;90.40;;;;;;4931923;29;20052;-66
2023/07/09 11:04:34;;;;;;;7.13;5.60;;;32.90;90.00;;;;;;4978301;28;20085;-65
2023/07/09 11:07:05;;;;;;;7.20;5.38;;;33.00;89.00;;;;;;4962213;28;20516;-65
2023/07/09 11:09:37;;;;;;;9.67;5.73;;;33.00;88.80;;;;;;4959387;28;20070;-65
2023/07/09 11:12:35;;;;;;;8.85;5.85;;;32.90;89.00;;;;;;4959173;28;20051;-64
2023/07/09 11:15:14;;;;;;;9.15;5.70;;;33.00;88.40;;;;;;5012976;28;20096;-67
2023/07/09 11:17:43;;;;;;;7.10;5.40;;;33.10;89.90;;;;;;5012972;28;20235;-67
2023/07/09 11:20:25;;;;;;;9.27;5.75;;;33.10;89.40;;;;;;5013987;28;20077;-67
2023/07/09 11:22:54;;;;;;;6.85;5.40;;;33.00;87.70;;;;;;5014373;28;20038;-66
2023/07/09 11:25:42;;;;;;;6.95;5.40;;;33.00;88.50;;;;;;5012152;28;21873;-66
2023/07/09 11:28:09;;;;;;;9.18;5.22;;;33.10;87.80;;;;;;5013669;28;20503;-67
2023/07/09 11:30:50;;;;;;;6.85;5.00;;;33.20;89.00;;;;;;5012762;28;20512;-65
2023/07/09 11:33:27;;;;;;;7.40;5.07;;;33.30;88.40;;;;;;5010796;28;20057;-65
2023/07/09 11:36:15;;;;;;;7.40;5.43;;;33.40;86.90;;;;;;4996276;28;20048;-66
2023/07/09 11:38:46;;;;;;;7.28;5.30;;;33.40;86.00;;;;;;5012626;28;20053;-66
2023/07/09 11:41:33;;;;;;;8.25;5.28;;;33.40;84.80;;;;;;5012720;28;20601;-65
2023/07/09 11:44:17;;;;;;;8.90;5.15;;;33.40;85.80;;;;;;5049943;28;20040;-66
2023/07/09 11:47:23;;;;;;;7.43;4.82;;;33.40;85.00;;;;;;5099203;28;20537;-65
2023/07/09 11:50:00;;;;;;;8.15;5.07;;;33.60;85.00;;;;;;5097847;27;20047;-65
2023/07/09 11:52:33;;;;;;;7.72;4.72;;;33.50;85.10;;;;;;5090624;28;20115;-65
2023/07/09 11:55:02;;;;;;;10.52;5.05;;;33.30;83.90;;;;;;5090555;28;20075;-67
2023/07/09 11:57:28;;;;;;;7.07;5.20;;;33.30;83.60;;;;;;5097121;28;20048;-67
2023/07/09 12:00:00;;;;;;;7.97;5.00;;;33.20;82.90;;;;;;5075740;28;20047;-66
2023/07/09 12:02:32;;;;;;;7.60;4.57;;;33.20;82.80;;;;;;5104300;28;20110;-66
2023/07/09 12:04:58;;;;;;;6.47;5.45;;;33.30;83.70;;;;;;5098089;28;20043;-66
2023/07/09 12:07:26;;;;;;;9.50;5.70;;;33.20;84.10;;;;;;5107667;28;20039;-66
2023/07/09 12:09:51;;;;;;;8.85;4.68;;;33.10;84.10;;;;;;5075775;28;20054;-66
2023/07/09 12:12:25;;;;;;;9.07;5.65;;;33.10;84.20;;;;;;5103435;28;20490;-67
2023/07/09 12:14:51;;;;;;;5.53;4.70;;;33.20;84.60;;;;;;5101581;28;20047;-65
2023/07/09 12:17:18;;;;;;;7.50;5.03;;;33.00;83.90;;;;;;5101496;28;20056;-66
2023/07/09 12:19:44;;;;;;;7.63;5.32;;;33.00;82.70;;;;;;5092210;28;20052;-66
2023/07/09 12:22:18;;;;;;;7.30;4.80;;;33.00;82.30;;;;;;5106895;27;20066;-66
2023/07/09 12:24:44;;;;;;;7.38;4.60;;;33.00;82.80;;;;;;5109868;28;20032;-67
2023/07/09 12:27:25;;;;;;;8.52;5.00;;;33.00;81.70;;;;;;5107063;27;20551;-67
2023/07/09 12:29:55;;;;;;;7.20;4.70;;;33.00;81.80;;;;;;5109471;28;20092;-68
2023/07/09 12:32:23;;;;;;;8.80;4.95;;;33.00;82.20;;;;;;5106311;27;20036;-68
2023/07/09 12:34:54;;;;;;;11.10;5.10;;;33.00;82.20;;;;;;5101829;28;20051;-66
2023/07/09 12:37:22;;;;;;;6.18;4.38;;;33.00;81.30;;;;;;5106842;28;20051;-67
2023/07/09 12:39:51;;;;;;;6.68;4.35;;;32.90;80.80;;;;;;5108626;28;20051;-66
2023/07/09 12:42:37;;;;;;;9.05;4.45;;;33.00;81.50;;;;;;5108105;28;20501;-64
2023/07/09 12:45:04;;;;;;;6.53;4.47;;;33.00;80.50;;;;;;5104617;28;20066;-67
2023/07/09 12:47:29;;;;;;;7.30;4.32;;;33.00;81.00;;;;;;5108487;28;20497;-66
2023/07/09 12:50:16;;;;;;;8.40;4.78;;;32.90;79.90;;;;;;5109586;28;20109;-67
2023/07/09 12:52:49;;;;;;;7.00;4.30;;;32.80;79.60;;;;;;5107182;28;20397;-66